sensor_id;sensor_type;location;lat;lon;timestamp;temperature;humidity
48876;DHT22;34689;51.644;5.618;2023-03-01T00:01:04;2.50;86.10
48876;DHT22;34689;51.644;5.618;2023-03-01T00:03:30;2.40;86.30
48876;DHT22;34689;51.644;5.618;2023-03-01T00:05:55;2.40;86.30
48876;DHT22;34689;51.644;5.618;2023-03-01T00:08:21;2.40;87.00
48876;DHT22;34689;51.644;5.618;2023-03-01T00:10:47;2.40;86.50
48876;DHT22;34689;51.644;5.618;2023-03-01T00:13:12;2.40;86.60
48876;DHT22;34689;51.644;5.618;2023-03-01T00:15:41;2.30;86.60
48876;DHT22;34689;51.644;5.618;2023-03-01T00:18:08;2.30;86.80
48876;DHT22;34689;51.644;5.618;2023-03-01T00:20:34;2.30;86.90
48876;DHT22;34689;51.644;5.618;2023-03-01T00:23:00;2.30;86.90
48876;DHT22;34689;51.644;5.618;2023-03-01T00:25:26;2.30;87.00
48876;DHT22;34689;51.644;5.618;2023-03-01T00:27:51;2.20;87.10
48876;DHT22;34689;51.644;5.618;2023-03-01T00:30:17;2.20;87.20
48876;DHT22;34689;51.644;5.618;2023-03-01T00:32:43;2.20;87.30
48876;DHT22;34689;51.644;5.618;2023-03-01T00:35:08;2.20;87.30
48876;DHT22;34689;51.644;5.618;2023-03-01T00:37:34;2.20;87.50
48876;DHT22;34689;51.644;5.618;2023-03-01T00:40:00;2.20;87.60
48876;DHT22;34689;51.644;5.618;2023-03-01T00:42:26;2.20;87.60
48876;DHT22;34689;51.644;5.618;2023-03-01T00:44:51;2.20;87.70
48876;DHT22;34689;51.644;5.618;2023-03-01T00:47:17;2.20;87.70
48876;DHT22;34689;51.644;5.618;2023-03-01T00:49:43;2.10;87.80
48876;DHT22;34689;51.644;5.618;2023-03-01T00:52:08;2.10;87.90
48876;DHT22;34689;51.644;5.618;2023-03-01T00:54:34;2.10;87.90
48876;DHT22;34689;51.644;5.618;2023-03-01T00:57:00;2.10;88.00
48876;DHT22;34689;51.644;5.618;2023-03-01T00:59:25;2.10;88.10
48876;DHT22;34689;51.644;5.618;2023-03-01T01:01:51;2.00;88.20
48876;DHT22;34689;51.644;5.618;2023-03-01T01:04:16;2.00;88.30
48876;DHT22;34689;51.644;5.618;2023-03-01T01:06:45;2.00;88.50
48876;DHT22;34689;51.644;5.618;2023-03-01T01:09:14;2.00;88.50
48876;DHT22;34689;51.644;5.618;2023-03-01T01:11:45;2.00;88.60
48876;DHT22;34689;51.644;5.618;2023-03-01T01:14:11;1.90;88.60
48876;DHT22;34689;51.644;5.618;2023-03-01T01:16:37;1.90;88.70
48876;DHT22;34689;51.644;5.618;2023-03-01T01:19:02;1.90;88.90
48876;DHT22;34689;51.644;5.618;2023-03-01T01:21:28;1.80;88.90
48876;DHT22;34689;51.644;5.618;2023-03-01T01:23:54;1.80;89.10
48876;DHT22;34689;51.644;5.618;2023-03-01T01:26:23;1.80;89.10
48876;DHT22;34689;51.644;5.618;2023-03-01T01:28:50;1.80;89.30
48876;DHT22;34689;51.644;5.618;2023-03-01T01:31:16;1.70;89.40
48876;DHT22;34689;51.644;5.618;2023-03-01T01:33:42;1.70;89.40
48876;DHT22;34689;51.644;5.618;2023-03-01T01:36:08;1.70;89.50
48876;DHT22;34689;51.644;5.618;2023-03-01T01:38:35;1.70;89.60
48876;DHT22;34689;51.644;5.618;2023-03-01T01:41:02;1.60;89.60
48876;DHT22;34689;51.644;5.618;2023-03-01T01:43:31;1.60;89.70
48876;DHT22;34689;51.644;5.618;2023-03-01T01:48:53;1.60;89.90
48876;DHT22;34689;51.644;5.618;2023-03-01T01:51:24;1.60;90.00
48876;DHT22;34689;51.644;5.618;2023-03-01T01:53:56;1.60;90.00
48876;DHT22;34689;51.644;5.618;2023-03-01T01:56:25;1.60;90.00
48876;DHT22;34689;51.644;5.618;2023-03-01T01:58:52;1.50;90.30
48876;DHT22;34689;51.644;5.618;2023-03-01T02:01:19;1.50;90.10
48876;DHT22;34689;51.644;5.618;2023-03-01T02:03:46;1.50;90.10
48876;DHT22;34689;51.644;5.618;2023-03-01T02:08:48;1.40;90.30
48876;DHT22;34689;51.644;5.618;2023-03-01T02:11:15;1.40;90.30
48876;DHT22;34689;51.644;5.618;2023-03-01T02:13:42;1.40;90.30
48876;DHT22;34689;51.644;5.618;2023-03-01T02:16:10;1.40;90.40
48876;DHT22;34689;51.644;5.618;2023-03-01T02:18:38;1.40;90.40
48876;DHT22;34689;51.644;5.618;2023-03-01T02:23:38;1.30;90.50
48876;DHT22;34689;51.644;5.618;2023-03-01T02:28:45;1.40;90.60
48876;DHT22;34689;51.644;5.618;2023-03-01T02:31:15;1.40;90.80
48876;DHT22;34689;51.644;5.618;2023-03-01T02:34:00;1.30;90.60
48876;DHT22;34689;51.644;5.618;2023-03-01T02:36:35;1.30;90.70
48876;DHT22;34689;51.644;5.618;2023-03-01T02:39:03;1.30;90.70
48876;DHT22;34689;51.644;5.618;2023-03-01T02:41:35;1.30;90.70
48876;DHT22;34689;51.644;5.618;2023-03-01T02:44:03;1.30;90.80
48876;DHT22;34689;51.644;5.618;2023-03-01T02:46:29;1.30;91.10
48876;DHT22;34689;51.644;5.618;2023-03-01T02:48:57;1.30;90.90
48876;DHT22;34689;51.644;5.618;2023-03-01T02:56:47;1.20;91.00
48876;DHT22;34689;51.644;5.618;2023-03-01T02:59:16;1.20;91.00
48876;DHT22;34689;51.644;5.618;2023-03-01T03:01:43;1.20;91.10
48876;DHT22;34689;51.644;5.618;2023-03-01T03:04:13;1.20;91.10
48876;DHT22;34689;51.644;5.618;2023-03-01T03:06:43;1.20;91.20
48876;DHT22;34689;51.644;5.618;2023-03-01T03:09:09;1.20;91.20
48876;DHT22;34689;51.644;5.618;2023-03-01T03:11:35;1.10;91.20
48876;DHT22;34689;51.644;5.618;2023-03-01T03:14:02;1.10;91.30
48876;DHT22;34689;51.644;5.618;2023-03-01T03:16:28;1.10;91.40
48876;DHT22;34689;51.644;5.618;2023-03-01T03:18:55;1.10;91.50
48876;DHT22;34689;51.644;5.618;2023-03-01T03:21:31;1.00;91.50
48876;DHT22;34689;51.644;5.618;2023-03-01T03:23:56;1.00;91.60
48876;DHT22;34689;51.644;5.618;2023-03-01T03:26:23;1.00;91.60
48876;DHT22;34689;51.644;5.618;2023-03-01T03:28:48;1.10;91.60
48876;DHT22;34689;51.644;5.618;2023-03-01T03:31:14;1.00;91.60
48876;DHT22;34689;51.644;5.618;2023-03-01T03:33:39;1.00;91.70
48876;DHT22;34689;51.644;5.618;2023-03-01T03:36:05;1.00;91.80
48876;DHT22;34689;51.644;5.618;2023-03-01T03:38:31;1.00;91.80
48876;DHT22;34689;51.644;5.618;2023-03-01T03:41:02;1.00;91.80
48876;DHT22;34689;51.644;5.618;2023-03-01T03:43:31;1.00;91.80
48876;DHT22;34689;51.644;5.618;2023-03-01T03:45:57;0.90;91.80
48876;DHT22;34689;51.644;5.618;2023-03-01T03:48:23;0.90;92.00
48876;DHT22;34689;51.644;5.618;2023-03-01T03:50:54;0.90;92.00
48876;DHT22;34689;51.644;5.618;2023-03-01T03:53:21;0.90;92.00
48876;DHT22;34689;51.644;5.618;2023-03-01T03:55:47;0.90;92.10
48876;DHT22;34689;51.644;5.618;2023-03-01T03:58:15;0.90;92.10
48876;DHT22;34689;51.644;5.618;2023-03-01T04:00:44;0.90;92.10
48876;DHT22;34689;51.644;5.618;2023-03-01T04:03:11;0.90;92.10
48876;DHT22;34689;51.644;5.618;2023-03-01T04:05:38;0.80;92.20
48876;DHT22;34689;51.644;5.618;2023-03-01T04:08:04;0.80;92.30
48876;DHT22;34689;51.644;5.618;2023-03-01T04:10:41;0.80;92.30
48876;DHT22;34689;51.644;5.618;2023-03-01T04:13:10;0.80;92.40
48876;DHT22;34689;51.644;5.618;2023-03-01T04:15:37;0.80;92.40
48876;DHT22;34689;51.644;5.618;2023-03-01T04:18:03;0.80;92.40
48876;DHT22;34689;51.644;5.618;2023-03-01T04:20:32;0.80;92.40
48876;DHT22;34689;51.644;5.618;2023-03-01T04:23:05;0.80;92.40
48876;DHT22;34689;51.644;5.618;2023-03-01T04:25:55;0.90;92.50
48876;DHT22;34689;51.644;5.618;2023-03-01T04:28:27;0.90;92.50
48876;DHT22;34689;51.644;5.618;2023-03-01T04:30:54;0.90;92.50
48876;DHT22;34689;51.644;5.618;2023-03-01T04:33:20;0.90;92.60
48876;DHT22;34689;51.644;5.618;2023-03-01T04:35:46;0.80;92.60
48876;DHT22;34689;51.644;5.618;2023-03-01T04:38:15;0.90;92.60
48876;DHT22;34689;51.644;5.618;2023-03-01T04:40:41;0.80;92.60
48876;DHT22;34689;51.644;5.618;2023-03-01T04:43:09;0.80;92.70
48876;DHT22;34689;51.644;5.618;2023-03-01T04:45:36;0.80;92.80
48876;DHT22;34689;51.644;5.618;2023-03-01T04:48:02;0.90;92.80
48876;DHT22;34689;51.644;5.618;2023-03-01T04:50:28;0.80;92.70
48876;DHT22;34689;51.644;5.618;2023-03-01T04:52:55;0.80;92.80
48876;DHT22;34689;51.644;5.618;2023-03-01T04:55:25;0.80;92.90
48876;DHT22;34689;51.644;5.618;2023-03-01T04:57:52;0.70;92.90
48876;DHT22;34689;51.644;5.618;2023-03-01T05:00:18;0.70;93.00
48876;DHT22;34689;51.644;5.618;2023-03-01T05:03:04;0.70;93.00
48876;DHT22;34689;51.644;5.618;2023-03-01T05:05:33;0.80;93.00
48876;DHT22;34689;51.644;5.618;2023-03-01T05:08:03;0.80;93.10
48876;DHT22;34689;51.644;5.618;2023-03-01T05:10:30;0.80;93.10
48876;DHT22;34689;51.644;5.618;2023-03-01T05:12:57;0.80;93.10
48876;DHT22;34689;51.644;5.618;2023-03-01T05:15:27;0.70;93.20
48876;DHT22;34689;51.644;5.618;2023-03-01T05:17:54;0.70;93.20
48876;DHT22;34689;51.644;5.618;2023-03-01T05:20:21;0.70;93.20
48876;DHT22;34689;51.644;5.618;2023-03-01T05:22:51;0.70;93.30
48876;DHT22;34689;51.644;5.618;2023-03-01T05:25:17;0.70;93.30
48876;DHT22;34689;51.644;5.618;2023-03-01T05:27:43;0.60;93.30
48876;DHT22;34689;51.644;5.618;2023-03-01T05:30:09;0.60;93.40
48876;DHT22;34689;51.644;5.618;2023-03-01T05:32:46;0.60;93.50
48876;DHT22;34689;51.644;5.618;2023-03-01T05:35:15;0.60;93.50
48876;DHT22;34689;51.644;5.618;2023-03-01T05:37:42;0.60;93.50
48876;DHT22;34689;51.644;5.618;2023-03-01T05:40:10;0.50;93.50
48876;DHT22;34689;51.644;5.618;2023-03-01T05:42:48;0.50;93.60
48876;DHT22;34689;51.644;5.618;2023-03-01T05:45:15;0.50;93.70
48876;DHT22;34689;51.644;5.618;2023-03-01T05:47:43;0.50;93.70
48876;DHT22;34689;51.644;5.618;2023-03-01T05:50:14;0.50;93.80
48876;DHT22;34689;51.644;5.618;2023-03-01T05:52:50;0.50;93.70
48876;DHT22;34689;51.644;5.618;2023-03-01T05:55:21;0.50;93.80
48876;DHT22;34689;51.644;5.618;2023-03-01T05:57:47;0.50;93.80
48876;DHT22;34689;51.644;5.618;2023-03-01T06:00:16;0.50;93.80
48876;DHT22;34689;51.644;5.618;2023-03-01T06:02:42;0.50;93.90
48876;DHT22;34689;51.644;5.618;2023-03-01T06:05:10;0.50;93.90
48876;DHT22;34689;51.644;5.618;2023-03-01T06:07:36;0.50;94.00
48876;DHT22;34689;51.644;5.618;2023-03-01T06:10:03;0.50;93.90
48876;DHT22;34689;51.644;5.618;2023-03-01T06:12:36;0.50;94.00
48876;DHT22;34689;51.644;5.618;2023-03-01T06:15:04;0.60;94.00
48876;DHT22;34689;51.644;5.618;2023-03-01T06:17:34;0.50;94.00
48876;DHT22;34689;51.644;5.618;2023-03-01T06:20:39;0.50;94.00
48876;DHT22;34689;51.644;5.618;2023-03-01T06:22:58;0.50;94.10
48876;DHT22;34689;51.644;5.618;2023-03-01T06:25:26;0.50;94.10
48876;DHT22;34689;51.644;5.618;2023-03-01T06:27:52;0.50;94.10
48876;DHT22;34689;51.644;5.618;2023-03-01T06:30:19;0.50;94.10
48876;DHT22;34689;51.644;5.618;2023-03-01T06:32:45;0.50;94.10
48876;DHT22;34689;51.644;5.618;2023-03-01T06:35:12;0.50;94.20
48876;DHT22;34689;51.644;5.618;2023-03-01T06:37:39;0.40;94.30
48876;DHT22;34689;51.644;5.618;2023-03-01T06:40:06;0.50;94.40
48876;DHT22;34689;51.644;5.618;2023-03-01T06:42:37;0.50;94.40
48876;DHT22;34689;51.644;5.618;2023-03-01T06:45:03;0.50;94.40
48876;DHT22;34689;51.644;5.618;2023-03-01T06:47:29;0.40;94.40
48876;DHT22;34689;51.644;5.618;2023-03-01T06:49:55;0.40;94.50
48876;DHT22;34689;51.644;5.618;2023-03-01T06:52:21;0.50;94.50
48876;DHT22;34689;51.644;5.618;2023-03-01T06:54:46;0.40;94.60
48876;DHT22;34689;51.644;5.618;2023-03-01T06:57:15;0.50;94.60
48876;DHT22;34689;51.644;5.618;2023-03-01T06:59:41;0.50;94.60
48876;DHT22;34689;51.644;5.618;2023-03-01T07:02:10;0.50;94.60
48876;DHT22;34689;51.644;5.618;2023-03-01T07:04:36;0.50;94.70
48876;DHT22;34689;51.644;5.618;2023-03-01T07:07:02;0.50;94.70
48876;DHT22;34689;51.644;5.618;2023-03-01T07:09:28;0.50;94.70
48876;DHT22;34689;51.644;5.618;2023-03-01T07:11:53;0.60;94.80
48876;DHT22;34689;51.644;5.618;2023-03-01T07:14:19;0.60;94.80
48876;DHT22;34689;51.644;5.618;2023-03-01T07:16:45;0.60;94.80
48876;DHT22;34689;51.644;5.618;2023-03-01T07:19:11;0.60;94.80
48876;DHT22;34689;51.644;5.618;2023-03-01T07:21:37;0.60;94.80
48876;DHT22;34689;51.644;5.618;2023-03-01T07:24:06;0.60;94.90
48876;DHT22;34689;51.644;5.618;2023-03-01T07:26:32;0.60;94.90
48876;DHT22;34689;51.644;5.618;2023-03-01T07:29:02;0.70;95.00
48876;DHT22;34689;51.644;5.618;2023-03-01T07:31:28;0.70;95.00
48876;DHT22;34689;51.644;5.618;2023-03-01T07:33:54;0.70;95.00
48876;DHT22;34689;51.644;5.618;2023-03-01T07:36:20;0.70;95.10
48876;DHT22;34689;51.644;5.618;2023-03-01T07:38:46;0.80;95.10
48876;DHT22;34689;51.644;5.618;2023-03-01T07:41:12;0.80;95.10
48876;DHT22;34689;51.644;5.618;2023-03-01T07:43:38;0.80;95.10
48876;DHT22;34689;51.644;5.618;2023-03-01T07:46:04;0.90;95.10
48876;DHT22;34689;51.644;5.618;2023-03-01T07:48:30;0.90;95.10
48876;DHT22;34689;51.644;5.618;2023-03-01T07:51:04;1.00;95.10
48876;DHT22;34689;51.644;5.618;2023-03-01T07:53:31;1.00;95.10
48876;DHT22;34689;51.644;5.618;2023-03-01T07:56:11;1.10;95.10
48876;DHT22;34689;51.644;5.618;2023-03-01T07:58:41;1.10;95.10
48876;DHT22;34689;51.644;5.618;2023-03-01T08:01:10;1.10;95.10
48876;DHT22;34689;51.644;5.618;2023-03-01T08:03:36;1.20;95.20
48876;DHT22;34689;51.644;5.618;2023-03-01T08:06:04;1.20;95.10
48876;DHT22;34689;51.644;5.618;2023-03-01T08:08:30;1.30;95.10
48876;DHT22;34689;51.644;5.618;2023-03-01T08:10:57;1.30;95.10
48876;DHT22;34689;51.644;5.618;2023-03-01T08:13:24;1.40;95.20
48876;DHT22;34689;51.644;5.618;2023-03-01T08:15:49;1.40;95.20
48876;DHT22;34689;51.644;5.618;2023-03-01T08:18:16;1.50;95.20
48876;DHT22;34689;51.644;5.618;2023-03-01T08:20:42;1.50;95.20
48876;DHT22;34689;51.644;5.618;2023-03-01T08:23:08;1.50;95.20
48876;DHT22;34689;51.644;5.618;2023-03-01T08:25:34;1.60;95.20
48876;DHT22;34689;51.644;5.618;2023-03-01T08:27:59;1.70;95.30
48876;DHT22;34689;51.644;5.618;2023-03-01T08:30:25;1.70;95.30
48876;DHT22;34689;51.644;5.618;2023-03-01T08:32:51;1.80;95.30
48876;DHT22;34689;51.644;5.618;2023-03-01T08:35:18;1.80;95.30
48876;DHT22;34689;51.644;5.618;2023-03-01T08:37:44;1.90;95.40
48876;DHT22;34689;51.644;5.618;2023-03-01T08:40:12;1.90;95.40
48876;DHT22;34689;51.644;5.618;2023-03-01T08:42:39;2.00;95.40
48876;DHT22;34689;51.644;5.618;2023-03-01T08:45:06;2.10;95.40
48876;DHT22;34689;51.644;5.618;2023-03-01T08:47:33;2.10;95.40
48876;DHT22;34689;51.644;5.618;2023-03-01T08:49:59;2.20;95.40
48876;DHT22;34689;51.644;5.618;2023-03-01T08:52:25;2.30;95.40
48876;DHT22;34689;51.644;5.618;2023-03-01T08:54:52;2.30;95.40
48876;DHT22;34689;51.644;5.618;2023-03-01T08:57:18;2.40;95.50
48876;DHT22;34689;51.644;5.618;2023-03-01T08:59:44;2.50;95.40
48876;DHT22;34689;51.644;5.618;2023-03-01T09:02:15;2.50;95.40
48876;DHT22;34689;51.644;5.618;2023-03-01T09:04:41;2.60;95.40
48876;DHT22;34689;51.644;5.618;2023-03-01T09:07:07;2.70;95.40
48876;DHT22;34689;51.644;5.618;2023-03-01T09:09:33;2.70;95.40
48876;DHT22;34689;51.644;5.618;2023-03-01T09:11:59;2.80;95.40
48876;DHT22;34689;51.644;5.618;2023-03-01T09:14:25;2.90;95.40
48876;DHT22;34689;51.644;5.618;2023-03-01T09:16:50;3.00;95.30
48876;DHT22;34689;51.644;5.618;2023-03-01T09:19:16;3.10;95.40
48876;DHT22;34689;51.644;5.618;2023-03-01T09:21:42;3.20;95.10
48876;DHT22;34689;51.644;5.618;2023-03-01T09:24:19;3.40;94.90
48876;DHT22;34689;51.644;5.618;2023-03-01T09:26:45;3.50;94.80
48876;DHT22;34689;51.644;5.618;2023-03-01T09:29:11;3.50;94.60
48876;DHT22;34689;51.644;5.618;2023-03-01T09:31:39;3.60;94.60
48876;DHT22;34689;51.644;5.618;2023-03-01T09:34:05;3.70;94.60
48876;DHT22;34689;51.644;5.618;2023-03-01T09:36:31;3.80;94.60
48876;DHT22;34689;51.644;5.618;2023-03-01T09:39:00;3.90;94.40
48876;DHT22;34689;51.644;5.618;2023-03-01T09:46:59;4.30;93.80
48876;DHT22;34689;51.644;5.618;2023-03-01T09:49:28;4.50;93.50
48876;DHT22;34689;51.644;5.618;2023-03-01T09:52:12;4.70;93.20
48876;DHT22;34689;51.644;5.618;2023-03-01T09:54:41;5.70;92.40
48876;DHT22;34689;51.644;5.618;2023-03-01T09:57:20;8.90;89.00
48876;DHT22;34689;51.644;5.618;2023-03-01T10:00:09;12.40;77.00
48876;DHT22;34689;51.644;5.618;2023-03-01T10:03:08;15.00;64.30
48876;DHT22;34689;51.644;5.618;2023-03-01T10:05:38;17.00;60.60
48876;DHT22;34689;51.644;5.618;2023-03-01T10:10:44;19.80;54.30
48876;DHT22;34689;51.644;5.618;2023-03-01T10:13:21;20.90;52.50
48876;DHT22;34689;51.644;5.618;2023-03-01T10:16:22;21.60;51.90
48876;DHT22;34689;51.644;5.618;2023-03-01T10:18:51;22.30;49.10
48876;DHT22;34689;51.644;5.618;2023-03-01T10:21:19;22.60;49.30
48876;DHT22;34689;51.644;5.618;2023-03-01T10:23:46;22.60;48.60
48876;DHT22;34689;51.644;5.618;2023-03-01T10:29:05;22.20;48.50
48876;DHT22;34689;51.644;5.618;2023-03-01T10:34:21;20.70;48.70
48876;DHT22;34689;51.644;5.618;2023-03-01T10:36:50;19.50;50.10
48876;DHT22;34689;51.644;5.618;2023-03-01T10:39:24;18.10;53.30
48876;DHT22;34689;51.644;5.618;2023-03-01T10:41:57;16.70;56.40
48876;DHT22;34689;51.644;5.618;2023-03-01T10:44:42;15.80;58.10
48876;DHT22;34689;51.644;5.618;2023-03-01T10:47:34;14.80;58.40
48876;DHT22;34689;51.644;5.618;2023-03-01T10:50:06;14.20;59.40
48876;DHT22;34689;51.644;5.618;2023-03-01T10:52:56;13.80;60.30
48876;DHT22;34689;51.644;5.618;2023-03-01T10:55:34;13.40;60.60
48876;DHT22;34689;51.644;5.618;2023-03-01T10:58:19;13.20;61.80
48876;DHT22;34689;51.644;5.618;2023-03-01T11:03:14;12.80;61.50
48876;DHT22;34689;51.644;5.618;2023-03-01T11:06:05;12.60;62.20
48876;DHT22;34689;51.644;5.618;2023-03-01T11:08:36;12.40;62.60
48876;DHT22;34689;51.644;5.618;2023-03-01T11:11:22;12.10;62.70
48876;DHT22;34689;51.644;5.618;2023-03-01T11:13:52;12.00;63.20
48876;DHT22;34689;51.644;5.618;2023-03-01T11:16:24;11.80;63.40
48876;DHT22;34689;51.644;5.618;2023-03-01T11:18:59;11.70;63.80
48876;DHT22;34689;51.644;5.618;2023-03-01T11:21:28;11.50;63.50
48876;DHT22;34689;51.644;5.618;2023-03-01T11:23:54;11.40;63.60
48876;DHT22;34689;51.644;5.618;2023-03-01T11:26:19;11.30;63.80
48876;DHT22;34689;51.644;5.618;2023-03-01T11:28:50;11.20;63.80
48876;DHT22;34689;51.644;5.618;2023-03-01T11:31:18;11.10;64.60
48876;DHT22;34689;51.644;5.618;2023-03-01T11:34:05;11.00;64.30
48876;DHT22;34689;51.644;5.618;2023-03-01T11:39:37;10.90;64.40
48876;DHT22;34689;51.644;5.618;2023-03-01T11:44:36;10.90;63.80
48876;DHT22;34689;51.644;5.618;2023-03-01T11:47:38;10.80;64.60
48876;DHT22;34689;51.644;5.618;2023-03-01T11:52:46;10.70;64.80
48876;DHT22;34689;51.644;5.618;2023-03-01T12:10:07;10.30;65.80
48876;DHT22;34689;51.644;5.618;2023-03-01T12:37:25;10.10;66.70
48876;DHT22;34689;51.644;5.618;2023-03-01T12:42:48;10.00;66.40
48876;DHT22;34689;51.644;5.618;2023-03-01T12:51:04;10.00;67.10
48876;DHT22;34689;51.644;5.618;2023-03-01T12:53:35;10.00;66.80
48876;DHT22;34689;51.644;5.618;2023-03-01T12:56:28;10.10;67.00
48876;DHT22;34689;51.644;5.618;2023-03-01T12:59:08;10.10;67.30
48876;DHT22;34689;51.644;5.618;2023-03-01T13:17:54;10.20;67.20
48876;DHT22;34689;51.644;5.618;2023-03-01T13:20:34;10.20;67.10
48876;DHT22;34689;51.644;5.618;2023-03-01T13:23:07;10.20;67.40
48876;DHT22;34689;51.644;5.618;2023-03-01T13:25:35;10.30;67.60
48876;DHT22;34689;51.644;5.618;2023-03-01T13:31:07;10.40;67.00
48876;DHT22;34689;51.644;5.618;2023-03-01T13:33:40;10.40;66.70
48876;DHT22;34689;51.644;5.618;2023-03-01T13:36:07;10.30;66.90
48876;DHT22;34689;51.644;5.618;2023-03-01T13:44:25;10.50;66.50
48876;DHT22;34689;51.644;5.618;2023-03-01T13:46:52;10.50;66.50
48876;DHT22;34689;51.644;5.618;2023-03-01T13:49:21;10.50;66.30
48876;DHT22;34689;51.644;5.618;2023-03-01T13:51:50;10.60;66.20
48876;DHT22;34689;51.644;5.618;2023-03-01T13:54:25;10.60;65.90
48876;DHT22;34689;51.644;5.618;2023-03-01T13:56:52;10.70;66.30
48876;DHT22;34689;51.644;5.618;2023-03-01T13:59:20;10.70;66.00
48876;DHT22;34689;51.644;5.618;2023-03-01T14:02:01;10.70;65.70
48876;DHT22;34689;51.644;5.618;2023-03-01T14:04:31;10.80;66.10
48876;DHT22;34689;51.644;5.618;2023-03-01T14:07:10;10.80;65.80
48876;DHT22;34689;51.644;5.618;2023-03-01T14:09:40;10.80;65.70
48876;DHT22;34689;51.644;5.618;2023-03-01T14:14:59;10.90;65.20
48876;DHT22;34689;51.644;5.618;2023-03-01T14:17:55;11.00;65.10
48876;DHT22;34689;51.644;5.618;2023-03-01T14:20:27;11.10;64.10
48876;DHT22;34689;51.644;5.618;2023-03-01T14:22:55;11.10;65.00
48876;DHT22;34689;51.644;5.618;2023-03-01T14:25:27;11.10;65.30
48876;DHT22;34689;51.644;5.618;2023-03-01T14:30:30;11.20;64.50
48876;DHT22;34689;51.644;5.618;2023-03-01T14:32:58;11.30;64.30
48876;DHT22;34689;51.644;5.618;2023-03-01T14:35:35;11.40;60.90
48876;DHT22;34689;51.644;5.618;2023-03-01T14:38:02;11.40;64.20
48876;DHT22;34689;51.644;5.618;2023-03-01T14:40:32;11.40;63.90
48876;DHT22;34689;51.644;5.618;2023-03-01T14:43:08;11.40;64.50
48876;DHT22;34689;51.644;5.618;2023-03-01T14:45:35;11.40;64.60
48876;DHT22;34689;51.644;5.618;2023-03-01T14:48:05;11.50;64.50
48876;DHT22;34689;51.644;5.618;2023-03-01T14:50:34;11.60;64.60
48876;DHT22;34689;51.644;5.618;2023-03-01T14:53:04;11.60;64.40
48876;DHT22;34689;51.644;5.618;2023-03-01T14:55:37;11.70;64.50
48876;DHT22;34689;51.644;5.618;2023-03-01T14:58:04;11.70;64.50
48876;DHT22;34689;51.644;5.618;2023-03-01T15:00:31;11.70;60.50
48876;DHT22;34689;51.644;5.618;2023-03-01T15:03:04;11.80;63.60
48876;DHT22;34689;51.644;5.618;2023-03-01T15:05:35;11.80;64.00
48876;DHT22;34689;51.644;5.618;2023-03-01T15:08:03;11.90;63.50
48876;DHT22;34689;51.644;5.618;2023-03-01T15:10:35;11.90;63.60
48876;DHT22;34689;51.644;5.618;2023-03-01T15:13:13;12.00;63.70
48876;DHT22;34689;51.644;5.618;2023-03-01T15:15:44;11.90;63.70
48876;DHT22;34689;51.644;5.618;2023-03-01T15:18:37;11.90;63.30
48876;DHT22;34689;51.644;5.618;2023-03-01T15:21:14;12.00;63.10
48876;DHT22;34689;51.644;5.618;2023-03-01T15:23:41;12.00;63.10
48876;DHT22;34689;51.644;5.618;2023-03-01T15:26:25;12.00;63.00
48876;DHT22;34689;51.644;5.618;2023-03-01T15:28:57;11.80;63.40
48876;DHT22;34689;51.644;5.618;2023-03-01T15:31:37;11.50;63.50
48876;DHT22;34689;51.644;5.618;2023-03-01T15:36:46;11.10;64.70
48876;DHT22;34689;51.644;5.618;2023-03-01T15:39:41;10.90;65.10
48876;DHT22;34689;51.644;5.618;2023-03-01T15:42:09;10.70;65.70
48876;DHT22;34689;51.644;5.618;2023-03-01T15:44:38;10.50;65.40
48876;DHT22;34689;51.644;5.618;2023-03-01T15:47:21;10.40;65.70
48876;DHT22;34689;51.644;5.618;2023-03-01T15:49:47;10.20;65.60
48876;DHT22;34689;51.644;5.618;2023-03-01T15:52:29;10.10;63.50
48876;DHT22;34689;51.644;5.618;2023-03-01T15:55:00;10.00;66.00
48876;DHT22;34689;51.644;5.618;2023-03-01T15:57:26;9.80;65.90
48876;DHT22;34689;51.644;5.618;2023-03-01T15:59:52;9.80;66.20
48876;DHT22;34689;51.644;5.618;2023-03-01T16:02:18;9.70;66.50
48876;DHT22;34689;51.644;5.618;2023-03-01T16:04:46;9.60;66.50
48876;DHT22;34689;51.644;5.618;2023-03-01T16:07:12;9.50;66.70
48876;DHT22;34689;51.644;5.618;2023-03-01T16:09:38;9.50;66.90
48876;DHT22;34689;51.644;5.618;2023-03-01T16:12:05;9.40;66.70
48876;DHT22;34689;51.644;5.618;2023-03-01T16:14:31;9.30;66.40
48876;DHT22;34689;51.644;5.618;2023-03-01T16:16:57;9.30;66.60
48876;DHT22;34689;51.644;5.618;2023-03-01T16:19:22;9.20;66.80
48876;DHT22;34689;51.644;5.618;2023-03-01T16:21:48;9.10;67.00
48876;DHT22;34689;51.644;5.618;2023-03-01T16:24:15;9.10;67.10
48876;DHT22;34689;51.644;5.618;2023-03-01T16:26:41;9.00;67.10
48876;DHT22;34689;51.644;5.618;2023-03-01T16:29:07;9.00;67.10
48876;DHT22;34689;51.644;5.618;2023-03-01T16:31:33;9.00;67.20
48876;DHT22;34689;51.644;5.618;2023-03-01T16:33:59;8.90;67.20
48876;DHT22;34689;51.644;5.618;2023-03-01T16:36:26;8.90;67.30
48876;DHT22;34689;51.644;5.618;2023-03-01T16:38:54;8.80;67.40
48876;DHT22;34689;51.644;5.618;2023-03-01T16:41:22;8.80;67.30
48876;DHT22;34689;51.644;5.618;2023-03-01T16:43:48;8.70;67.30
48876;DHT22;34689;51.644;5.618;2023-03-01T16:46:22;8.70;67.40
48876;DHT22;34689;51.644;5.618;2023-03-01T16:48:50;8.60;67.50
48876;DHT22;34689;51.644;5.618;2023-03-01T16:51:16;8.60;67.60
48876;DHT22;34689;51.644;5.618;2023-03-01T16:53:42;8.50;67.50
48876;DHT22;34689;51.644;5.618;2023-03-01T16:56:10;8.50;67.50
48876;DHT22;34689;51.644;5.618;2023-03-01T16:58:37;8.40;67.60
48876;DHT22;34689;51.644;5.618;2023-03-01T17:01:17;8.40;67.80
48876;DHT22;34689;51.644;5.618;2023-03-01T17:03:44;8.40;68.10
48876;DHT22;34689;51.644;5.618;2023-03-01T17:06:14;8.30;67.90
48876;DHT22;34689;51.644;5.618;2023-03-01T17:08:41;8.30;68.20
48876;DHT22;34689;51.644;5.618;2023-03-01T17:11:14;8.20;68.20
48876;DHT22;34689;51.644;5.618;2023-03-01T17:13:41;8.20;68.40
48876;DHT22;34689;51.644;5.618;2023-03-01T17:16:09;8.20;68.40
48876;DHT22;34689;51.644;5.618;2023-03-01T17:18:36;8.10;68.50
48876;DHT22;34689;51.644;5.618;2023-03-01T17:21:02;8.10;68.70
48876;DHT22;34689;51.644;5.618;2023-03-01T17:23:30;8.10;68.90
48876;DHT22;34689;51.644;5.618;2023-03-01T17:25:56;8.00;69.00
48876;DHT22;34689;51.644;5.618;2023-03-01T17:28:23;8.00;69.20
48876;DHT22;34689;51.644;5.618;2023-03-01T17:30:49;7.90;69.30
48876;DHT22;34689;51.644;5.618;2023-03-01T17:33:16;7.90;69.40
48876;DHT22;34689;51.644;5.618;2023-03-01T17:35:41;7.80;69.60
48876;DHT22;34689;51.644;5.618;2023-03-01T17:38:10;7.80;69.70
48876;DHT22;34689;51.644;5.618;2023-03-01T17:40:39;7.70;69.80
48876;DHT22;34689;51.644;5.618;2023-03-01T17:43:05;7.70;69.90
48876;DHT22;34689;51.644;5.618;2023-03-01T17:45:30;7.70;70.00
48876;DHT22;34689;51.644;5.618;2023-03-01T17:47:56;7.70;70.10
48876;DHT22;34689;51.644;5.618;2023-03-01T17:50:22;7.60;70.20
48876;DHT22;34689;51.644;5.618;2023-03-01T17:52:48;7.60;70.30
48876;DHT22;34689;51.644;5.618;2023-03-01T17:55:14;7.50;70.40
48876;DHT22;34689;51.644;5.618;2023-03-01T17:57:40;7.50;70.40